sensor_id;sensor_type;location;lat;lon;timestamp;P1;durP1;ratioP1;P2;durP2;ratioP2
3523;SDS011;1776;53.330;11.498;2024-03-23T00:53:14;19.80;;;6.97;;
3523;SDS011;1776;53.330;11.498;2024-03-23T00:55:40;16.37;;;5.33;;
3523;SDS011;1776;53.330;11.498;2024-03-23T00:58:06;17.57;;;6.50;;
3523;SDS011;1776;53.330;11.498;2024-03-23T01:00:31;19.60;;;6.23;;
3523;SDS011;1776;53.330;11.498;2024-03-23T01:02:56;17.47;;;5.47;;
3523;SDS011;1776;53.330;11.498;2024-03-23T01:05:21;30.63;;;6.53;;
3523;SDS011;1776;53.330;11.498;2024-03-23T01:07:47;21.27;;;5.20;;
3523;SDS011;1776;53.330;11.498;2024-03-23T01:10:12;21.73;;;6.37;;
3523;SDS011;1776;53.330;11.498;2024-03-23T01:12:37;19.90;;;5.53;;
3523;SDS011;1776;53.330;11.498;2024-03-23T01:15:02;10.33;;;4.70;;
3523;SDS011;1776;53.330;11.498;2024-03-23T01:17:28;11.20;;;4.60;;
3523;SDS011;1776;53.330;11.498;2024-03-23T01:19:53;16.67;;;5.07;;
3523;SDS011;1776;53.330;11.498;2024-03-23T01:22:19;15.40;;;5.10;;
3523;SDS011;1776;53.330;11.498;2024-03-23T01:24:44;21.53;;;5.80;;
3523;SDS011;1776;53.330;11.498;2024-03-23T01:27:09;12.33;;;5.67;;
3523;SDS011;1776;53.330;11.498;2024-03-23T01:29:35;10.80;;;5.33;;
3523;SDS011;1776;53.330;11.498;2024-03-23T01:32:00;14.70;;;5.70;;
3523;SDS011;1776;53.330;11.498;2024-03-23T01:34:25;13.40;;;4.60;;
3523;SDS011;1776;53.330;11.498;2024-03-23T01:36:51;15.80;;;5.40;;
3523;SDS011;1776;53.330;11.498;2024-03-23T01:39:16;12.63;;;4.97;;
3523;SDS011;1776;53.330;11.498;2024-03-23T01:41:42;13.87;;;5.77;;
3523;SDS011;1776;53.330;11.498;2024-03-23T01:44:08;32.00;;;6.00;;
3523;SDS011;1776;53.330;11.498;2024-03-23T01:46:34;19.47;;;5.77;;
3523;SDS011;1776;53.330;11.498;2024-03-23T01:49:01;26.83;;;6.20;;
3523;SDS011;1776;53.330;11.498;2024-03-23T01:51:27;14.80;;;5.80;;
3523;SDS011;1776;53.330;11.498;2024-03-23T01:53:53;24.70;;;5.67;;
3523;SDS011;1776;53.330;11.498;2024-03-23T01:56:19;21.70;;;6.03;;
3523;SDS011;1776;53.330;11.498;2024-03-23T01:58:45;27.20;;;6.77;;
3523;SDS011;1776;53.330;11.498;2024-03-23T02:01:10;24.60;;;5.63;;
3523;SDS011;1776;53.330;11.498;2024-03-23T02:03:35;25.37;;;6.00;;
3523;SDS011;1776;53.330;11.498;2024-03-23T02:06:01;17.20;;;5.23;;
3523;SDS011;1776;53.330;11.498;2024-03-23T02:08:27;21.37;;;4.90;;
3523;SDS011;1776;53.330;11.498;2024-03-23T02:10:52;19.83;;;7.60;;
3523;SDS011;1776;53.330;11.498;2024-03-23T02:13:18;23.60;;;6.23;;
3523;SDS011;1776;53.330;11.498;2024-03-23T02:15:43;21.30;;;6.40;;
3523;SDS011;1776;53.330;11.498;2024-03-23T02:18:09;14.43;;;5.50;;
3523;SDS011;1776;53.330;11.498;2024-03-23T02:20:35;26.83;;;6.83;;
3523;SDS011;1776;53.330;11.498;2024-03-23T02:23:01;17.37;;;6.63;;
3523;SDS011;1776;53.330;11.498;2024-03-23T02:25:26;14.27;;;4.73;;
3523;SDS011;1776;53.330;11.498;2024-03-23T02:27:52;23.37;;;5.70;;
3523;SDS011;1776;53.330;11.498;2024-03-23T02:30:19;14.93;;;5.97;;
3523;SDS011;1776;53.330;11.498;2024-03-23T02:32:44;24.97;;;5.40;;
3523;SDS011;1776;53.330;11.498;2024-03-23T02:35:09;12.37;;;5.20;;
3523;SDS011;1776;53.330;11.498;2024-03-23T02:37:35;26.30;;;7.33;;
3523;SDS011;1776;53.330;11.498;2024-03-23T02:40:00;41.90;;;7.43;;
3523;SDS011;1776;53.330;11.498;2024-03-23T02:42:25;23.13;;;6.43;;
3523;SDS011;1776;53.330;11.498;2024-03-23T02:44:51;20.70;;;5.73;;
3523;SDS011;1776;53.330;11.498;2024-03-23T02:47:16;16.60;;;5.00;;
3523;SDS011;1776;53.330;11.498;2024-03-23T02:49:41;22.03;;;5.93;;
3523;SDS011;1776;53.330;11.498;2024-03-23T02:52:06;18.20;;;5.67;;
3523;SDS011;1776;53.330;11.498;2024-03-23T02:54:32;33.73;;;6.20;;
3523;SDS011;1776;53.330;11.498;2024-03-23T02:56:57;24.00;;;5.30;;
3523;SDS011;1776;53.330;11.498;2024-03-23T02:59:22;13.63;;;4.97;;
3523;SDS011;1776;53.330;11.498;2024-03-23T03:01:47;14.03;;;5.17;;
3523;SDS011;1776;53.330;11.498;2024-03-23T03:04:13;25.47;;;5.90;;
3523;SDS011;1776;53.330;11.498;2024-03-23T03:06:38;18.33;;;5.13;;
3523;SDS011;1776;53.330;11.498;2024-03-23T03:09:03;30.03;;;6.77;;
3523;SDS011;1776;53.330;11.498;2024-03-23T03:11:29;22.60;;;4.57;;
3523;SDS011;1776;53.330;11.498;2024-03-23T03:13:54;11.87;;;4.13;;
3523;SDS011;1776;53.330;11.498;2024-03-23T03:16:20;16.50;;;4.83;;
3523;SDS011;1776;53.330;11.498;2024-03-23T03:18:45;15.27;;;4.30;;
3523;SDS011;1776;53.330;11.498;2024-03-23T03:21:11;21.43;;;5.00;;
3523;SDS011;1776;53.330;11.498;2024-03-23T03:23:37;22.33;;;5.57;;
3523;SDS011;1776;53.330;11.498;2024-03-23T03:26:03;17.83;;;4.93;;
3523;SDS011;1776;53.330;11.498;2024-03-23T03:28:29;18.90;;;5.57;;
3523;SDS011;1776;53.330;11.498;2024-03-23T03:30:56;24.43;;;4.80;;
3523;SDS011;1776;53.330;11.498;2024-03-23T03:33:22;27.20;;;5.67;;
3523;SDS011;1776;53.330;11.498;2024-03-23T03:35:48;10.00;;;3.50;;
3523;SDS011;1776;53.330;11.498;2024-03-23T03:38:14;11.80;;;4.90;;
3523;SDS011;1776;53.330;11.498;2024-03-23T03:40:39;18.80;;;4.90;;
3523;SDS011;1776;53.330;11.498;2024-03-23T03:43:06;18.67;;;5.37;;
3523;SDS011;1776;53.330;11.498;2024-03-23T03:45:31;21.87;;;5.60;;
3523;SDS011;1776;53.330;11.498;2024-03-23T03:47:57;17.53;;;4.50;;
3523;SDS011;1776;53.330;11.498;2024-03-23T03:50:22;13.90;;;5.13;;
3523;SDS011;1776;53.330;11.498;2024-03-23T03:52:47;29.83;;;4.90;;
3523;SDS011;1776;53.330;11.498;2024-03-23T03:55:13;24.00;;;4.40;;
3523;SDS011;1776;53.330;11.498;2024-03-23T03:57:39;14.03;;;3.70;;
3523;SDS011;1776;53.330;11.498;2024-03-23T04:00:05;19.97;;;3.87;;
3523;SDS011;1776;53.330;11.498;2024-03-23T04:02:31;20.87;;;5.57;;
3523;SDS011;1776;53.330;11.498;2024-03-23T04:04:56;14.87;;;4.63;;
3523;SDS011;1776;53.330;11.498;2024-03-23T04:07:22;41.07;;;6.13;;
3523;SDS011;1776;53.330;11.498;2024-03-23T04:09:48;18.63;;;5.17;;
3523;SDS011;1776;53.330;11.498;2024-03-23T04:12:14;20.37;;;5.70;;
3523;SDS011;1776;53.330;11.498;2024-03-23T04:14:39;19.17;;;6.17;;
3523;SDS011;1776;53.330;11.498;2024-03-23T04:17:05;17.67;;;5.20;;
3523;SDS011;1776;53.330;11.498;2024-03-23T04:19:30;17.03;;;4.10;;
3523;SDS011;1776;53.330;11.498;2024-03-23T04:21:55;16.47;;;4.97;;
3523;SDS011;1776;53.330;11.498;2024-03-23T04:24:20;18.50;;;5.20;;
3523;SDS011;1776;53.330;11.498;2024-03-23T04:26:47;14.10;;;4.30;;
3523;SDS011;1776;53.330;11.498;2024-03-23T04:29:12;19.50;;;5.07;;
3523;SDS011;1776;53.330;11.498;2024-03-23T04:31:38;12.17;;;4.03;;
3523;SDS011;1776;53.330;11.498;2024-03-23T04:34:03;15.83;;;4.70;;
3523;SDS011;1776;53.330;11.498;2024-03-23T04:36:29;13.03;;;4.63;;
3523;SDS011;1776;53.330;11.498;2024-03-23T04:38:54;15.20;;;3.90;;
3523;SDS011;1776;53.330;11.498;2024-03-23T04:41:20;11.30;;;3.97;;
3523;SDS011;1776;53.330;11.498;2024-03-23T04:43:45;16.83;;;5.27;;
3523;SDS011;1776;53.330;11.498;2024-03-23T04:46:10;18.80;;;4.27;;
3523;SDS011;1776;53.330;11.498;2024-03-23T04:48:36;13.10;;;4.00;;
3523;SDS011;1776;53.330;11.498;2024-03-23T04:51:01;21.83;;;4.97;;
3523;SDS011;1776;53.330;11.498;2024-03-23T04:53:26;17.93;;;4.87;;
3523;SDS011;1776;53.330;11.498;2024-03-23T04:55:55;16.67;;;5.00;;
3523;SDS011;1776;53.330;11.498;2024-03-23T04:58:21;16.93;;;6.23;;
3523;SDS011;1776;53.330;11.498;2024-03-23T05:00:56;19.33;;;4.47;;
3523;SDS011;1776;53.330;11.498;2024-03-23T05:03:22;11.93;;;4.67;;
3523;SDS011;1776;53.330;11.498;2024-03-23T05:05:48;16.67;;;4.57;;
3523;SDS011;1776;53.330;11.498;2024-03-23T05:08:14;21.37;;;4.30;;
3523;SDS011;1776;53.330;11.498;2024-03-23T05:10:41;17.90;;;5.73;;
3523;SDS011;1776;53.330;11.498;2024-03-23T05:13:06;20.23;;;4.50;;
3523;SDS011;1776;53.330;11.498;2024-03-23T05:15:32;11.13;;;4.23;;
3523;SDS011;1776;53.330;11.498;2024-03-23T05:17:57;22.17;;;4.60;;
3523;SDS011;1776;53.330;11.498;2024-03-23T05:20:22;24.97;;;5.63;;
3523;SDS011;1776;53.330;11.498;2024-03-23T05:22:48;16.53;;;4.40;;
3523;SDS011;1776;53.330;11.498;2024-03-23T05:25:13;18.73;;;6.10;;
3523;SDS011;1776;53.330;11.498;2024-03-23T05:27:38;27.40;;;6.60;;
3523;SDS011;1776;53.330;11.498;2024-03-23T05:30:04;19.87;;;4.53;;
3523;SDS011;1776;53.330;11.498;2024-03-23T05:32:30;24.93;;;5.37;;
3523;SDS011;1776;53.330;11.498;2024-03-23T05:34:56;16.00;;;4.60;;
3523;SDS011;1776;53.330;11.498;2024-03-23T05:37:22;16.47;;;5.47;;
3523;SDS011;1776;53.330;11.498;2024-03-23T05:39:47;17.93;;;5.73;;
3523;SDS011;1776;53.330;11.498;2024-03-23T05:42:16;16.00;;;4.67;;
3523;SDS011;1776;53.330;11.498;2024-03-23T05:44:43;18.63;;;4.83;;
3523;SDS011;1776;53.330;11.498;2024-03-23T05:47:09;18.03;;;4.50;;
3523;SDS011;1776;53.330;11.498;2024-03-23T05:49:34;13.43;;;4.63;;
3523;SDS011;1776;53.330;11.498;2024-03-23T05:51:59;17.63;;;4.83;;
3523;SDS011;1776;53.330;11.498;2024-03-23T05:54:27;26.07;;;5.37;;
3523;SDS011;1776;53.330;11.498;2024-03-23T05:56:54;19.17;;;5.27;;
3523;SDS011;1776;53.330;11.498;2024-03-23T05:59:20;20.40;;;4.93;;
3523;SDS011;1776;53.330;11.498;2024-03-23T06:01:46;21.80;;;5.80;;
3523;SDS011;1776;53.330;11.498;2024-03-23T06:04:11;16.00;;;4.57;;
3523;SDS011;1776;53.330;11.498;2024-03-23T06:06:38;27.40;;;6.23;;
3523;SDS011;1776;53.330;11.498;2024-03-23T06:09:03;15.77;;;5.47;;
3523;SDS011;1776;53.330;11.498;2024-03-23T06:11:28;20.33;;;5.60;;
3523;SDS011;1776;53.330;11.498;2024-03-23T06:13:53;24.73;;;7.70;;
3523;SDS011;1776;53.330;11.498;2024-03-23T06:16:19;18.57;;;5.90;;
3523;SDS011;1776;53.330;11.498;2024-03-23T06:18:48;22.47;;;8.20;;
3523;SDS011;1776;53.330;11.498;2024-03-23T06:21:13;20.03;;;8.97;;
3523;SDS011;1776;53.330;11.498;2024-03-23T06:23:40;28.67;;;10.40;;
3523;SDS011;1776;53.330;11.498;2024-03-23T06:26:05;38.00;;;15.40;;
3523;SDS011;1776;53.330;11.498;2024-03-23T06:28:31;31.77;;;11.00;;
3523;SDS011;1776;53.330;11.498;2024-03-23T06:30:56;16.27;;;7.17;;
3523;SDS011;1776;53.330;11.498;2024-03-23T06:33:21;27.57;;;9.70;;
3523;SDS011;1776;53.330;11.498;2024-03-23T06:35:50;21.27;;;6.57;;
3523;SDS011;1776;53.330;11.498;2024-03-23T06:38:17;13.50;;;5.83;;
3523;SDS011;1776;53.330;11.498;2024-03-23T06:40:42;18.17;;;6.83;;
3523;SDS011;1776;53.330;11.498;2024-03-23T06:43:07;17.43;;;5.07;;
3523;SDS011;1776;53.330;11.498;2024-03-23T06:45:33;23.77;;;4.83;;
3523;SDS011;1776;53.330;11.498;2024-03-23T06:47:58;9.57;;;3.87;;
3523;SDS011;1776;53.330;11.498;2024-03-23T06:50:24;20.57;;;4.63;;
3523;SDS011;1776;53.330;11.498;2024-03-23T06:52:50;12.67;;;4.63;;
3523;SDS011;1776;53.330;11.498;2024-03-23T06:55:15;18.70;;;5.23;;
3523;SDS011;1776;53.330;11.498;2024-03-23T06:57:40;22.17;;;7.00;;
3523;SDS011;1776;53.330;11.498;2024-03-23T07:00:06;34.97;;;6.70;;
3523;SDS011;1776;53.330;11.498;2024-03-23T07:02:35;21.77;;;5.13;;
3523;SDS011;1776;53.330;11.498;2024-03-23T07:05:00;28.33;;;5.70;;
3523;SDS011;1776;53.330;11.498;2024-03-23T07:07:25;16.60;;;4.80;;
3523;SDS011;1776;53.330;11.498;2024-03-23T07:09:52;19.23;;;3.93;;
3523;SDS011;1776;53.330;11.498;2024-03-23T07:12:17;26.80;;;5.90;;
3523;SDS011;1776;53.330;11.498;2024-03-23T07:14:43;27.83;;;5.10;;
3523;SDS011;1776;53.330;11.498;2024-03-23T07:17:08;16.70;;;4.87;;
3523;SDS011;1776;53.330;11.498;2024-03-23T07:19:33;18.50;;;5.20;;
3523;SDS011;1776;53.330;11.498;2024-03-23T07:21:58;15.83;;;4.63;;
3523;SDS011;1776;53.330;11.498;2024-03-23T07:24:27;24.13;;;5.03;;
3523;SDS011;1776;53.330;11.498;2024-03-23T07:26:52;19.03;;;5.60;;
3523;SDS011;1776;53.330;11.498;2024-03-23T07:29:19;19.40;;;4.40;;
3523;SDS011;1776;53.330;11.498;2024-03-23T07:31:44;23.23;;;4.90;;
3523;SDS011;1776;53.330;11.498;2024-03-23T07:34:10;15.93;;;5.30;;
3523;SDS011;1776;53.330;11.498;2024-03-23T07:36:35;25.70;;;5.97;;
3523;SDS011;1776;53.330;11.498;2024-03-23T07:39:00;14.23;;;4.70;;
3523;SDS011;1776;53.330;11.498;2024-03-23T07:41:25;14.47;;;5.40;;
3523;SDS011;1776;53.330;11.498;2024-03-23T07:43:53;20.03;;;5.30;;
3523;SDS011;1776;53.330;11.498;2024-03-23T07:46:18;15.80;;;4.20;;
3523;SDS011;1776;53.330;11.498;2024-03-23T07:48:45;20.43;;;5.10;;
3523;SDS011;1776;53.330;11.498;2024-03-23T07:51:13;22.27;;;4.97;;
3523;SDS011;1776;53.330;11.498;2024-03-23T07:53:42;18.33;;;5.10;;
3523;SDS011;1776;53.330;11.498;2024-03-23T07:56:09;19.13;;;6.13;;
3523;SDS011;1776;53.330;11.498;2024-03-23T07:58:35;22.87;;;5.40;;
3523;SDS011;1776;53.330;11.498;2024-03-23T08:01:04;31.27;;;5.30;;
3523;SDS011;1776;53.330;11.498;2024-03-23T08:03:33;21.67;;;4.97;;
3523;SDS011;1776;53.330;11.498;2024-03-23T08:06:06;16.07;;;5.97;;
3523;SDS011;1776;53.330;11.498;2024-03-23T08:08:49;29.67;;;5.50;;
3523;SDS011;1776;53.330;11.498;2024-03-23T08:11:24;25.37;;;5.73;;
3523;SDS011;1776;53.330;11.498;2024-03-23T08:13:49;25.53;;;5.63;;
3523;SDS011;1776;53.330;11.498;2024-03-23T08:16:14;17.30;;;6.13;;
3523;SDS011;1776;53.330;11.498;2024-03-23T08:18:40;26.10;;;6.40;;
3523;SDS011;1776;53.330;11.498;2024-03-23T08:21:05;20.87;;;6.03;;
3523;SDS011;1776;53.330;11.498;2024-03-23T08:23:31;21.60;;;5.40;;
3523;SDS011;1776;53.330;11.498;2024-03-23T08:26:22;23.57;;;6.07;;
3523;SDS011;1776;53.330;11.498;2024-03-23T08:28:47;24.70;;;7.73;;
3523;SDS011;1776;53.330;11.498;2024-03-23T08:31:13;16.20;;;4.60;;
3523;SDS011;1776;53.330;11.498;2024-03-23T08:33:39;28.83;;;5.63;;
3523;SDS011;1776;53.330;11.498;2024-03-23T08:36:07;22.53;;;5.83;;
3523;SDS011;1776;53.330;11.498;2024-03-23T08:38:34;17.57;;;5.30;;
3523;SDS011;1776;53.330;11.498;2024-03-23T08:41:00;18.60;;;5.30;;
3523;SDS011;1776;53.330;11.498;2024-03-23T08:43:30;34.83;;;5.30;;
3523;SDS011;1776;53.330;11.498;2024-03-23T08:46:06;25.50;;;4.70;;
3523;SDS011;1776;53.330;11.498;2024-03-23T08:48:34;19.33;;;4.20;;
3523;SDS011;1776;53.330;11.498;2024-03-23T08:51:00;20.20;;;4.90;;
3523;SDS011;1776;53.330;11.498;2024-03-23T08:53:29;21.83;;;7.37;;
3523;SDS011;1776;53.330;11.498;2024-03-23T08:55:56;26.20;;;5.30;;
3523;SDS011;1776;53.330;11.498;2024-03-23T08:58:25;17.83;;;6.17;;
3523;SDS011;1776;53.330;11.498;2024-03-23T09:00:51;18.00;;;5.57;;
3523;SDS011;1776;53.330;11.498;2024-03-23T09:03:17;27.17;;;6.90;;
3523;SDS011;1776;53.330;11.498;2024-03-23T09:05:42;17.97;;;3.80;;
3523;SDS011;1776;53.330;11.498;2024-03-23T09:08:08;19.40;;;5.50;;
3523;SDS011;1776;53.330;11.498;2024-03-23T09:10:39;23.70;;;5.10;;
3523;SDS011;1776;53.330;11.498;2024-03-23T09:13:05;14.53;;;4.97;;
3523;SDS011;1776;53.330;11.498;2024-03-23T09:15:34;13.37;;;4.73;;
3523;SDS011;1776;53.330;11.498;2024-03-23T09:18:00;30.50;;;6.50;;
3523;SDS011;1776;53.330;11.498;2024-03-23T09:20:26;19.27;;;5.63;;
3523;SDS011;1776;53.330;11.498;2024-03-23T09:22:52;25.33;;;7.23;;
3523;SDS011;1776;53.330;11.498;2024-03-23T09:25:17;22.80;;;5.80;;
3523;SDS011;1776;53.330;11.498;2024-03-23T09:27:42;21.27;;;5.43;;
3523;SDS011;1776;53.330;11.498;2024-03-23T09:30:08;15.93;;;4.40;;
3523;SDS011;1776;53.330;11.498;2024-03-23T09:32:35;24.77;;;5.70;;
3523;SDS011;1776;53.330;11.498;2024-03-23T09:35:00;14.80;;;4.57;;
3523;SDS011;1776;53.330;11.498;2024-03-23T09:37:25;13.40;;;4.70;;
3523;SDS011;1776;53.330;11.498;2024-03-23T09:39:50;21.40;;;5.40;;
3523;SDS011;1776;53.330;11.498;2024-03-23T09:42:16;24.93;;;5.27;;
3523;SDS011;1776;53.330;11.498;2024-03-23T09:44:41;13.97;;;4.20;;
3523;SDS011;1776;53.330;11.498;2024-03-23T09:47:07;10.10;;;4.60;;
3523;SDS011;1776;53.330;11.498;2024-03-23T09:49:33;15.67;;;5.03;;
3523;SDS011;1776;53.330;11.498;2024-03-23T09:52:01;14.03;;;4.23;;
3523;SDS011;1776;53.330;11.498;2024-03-23T09:54:27;21.20;;;4.23;;
3523;SDS011;1776;53.330;11.498;2024-03-23T09:56:52;27.37;;;5.70;;
3523;SDS011;1776;53.330;11.498;2024-03-23T09:59:18;22.40;;;5.07;;
3523;SDS011;1776;53.330;11.498;2024-03-23T10:01:43;14.50;;;4.40;;
3523;SDS011;1776;53.330;11.498;2024-03-23T10:04:08;14.07;;;4.07;;
3523;SDS011;1776;53.330;11.498;2024-03-23T10:06:34;19.03;;;5.27;;
3523;SDS011;1776;53.330;11.498;2024-03-23T10:09:00;14.73;;;4.60;;
3523;SDS011;1776;53.330;11.498;2024-03-23T10:11:25;20.93;;;6.37;;
3523;SDS011;1776;53.330;11.498;2024-03-23T10:13:52;13.43;;;4.53;;
3523;SDS011;1776;53.330;11.498;2024-03-23T10:16:21;9.50;;;3.27;;
3523;SDS011;1776;53.330;11.498;2024-03-23T10:18:48;16.30;;;4.43;;
3523;SDS011;1776;53.330;11.498;2024-03-23T10:21:14;10.30;;;3.10;;
3523;SDS011;1776;53.330;11.498;2024-03-23T10:23:40;29.33;;;5.30;;
3523;SDS011;1776;53.330;11.498;2024-03-23T10:26:13;21.97;;;5.63;;
3523;SDS011;1776;53.330;11.498;2024-03-23T10:28:50;14.07;;;3.40;;
3523;SDS011;1776;53.330;11.498;2024-03-23T10:31:36;13.70;;;3.53;;
3523;SDS011;1776;53.330;11.498;2024-03-23T10:34:02;22.00;;;4.10;;
3523;SDS011;1776;53.330;11.498;2024-03-23T10:36:28;16.53;;;3.27;;
3523;SDS011;1776;53.330;11.498;2024-03-23T10:38:57;17.07;;;4.70;;
3523;SDS011;1776;53.330;11.498;2024-03-23T10:41:31;7.53;;;2.40;;
3523;SDS011;1776;53.330;11.498;2024-03-23T10:43:56;12.50;;;3.83;;
3523;SDS011;1776;53.330;11.498;2024-03-23T10:46:23;10.43;;;2.30;;
3523;SDS011;1776;53.330;11.498;2024-03-23T10:48:48;12.73;;;2.63;;
3523;SDS011;1776;53.330;11.498;2024-03-23T10:51:14;13.37;;;2.90;;
3523;SDS011;1776;53.330;11.498;2024-03-23T10:53:40;12.13;;;2.63;;
3523;SDS011;1776;53.330;11.498;2024-03-23T10:56:05;10.13;;;3.67;;
3523;SDS011;1776;53.330;11.498;2024-03-23T10:58:33;9.30;;;2.90;;
3523;SDS011;1776;53.330;11.498;2024-03-23T11:01:03;10.30;;;3.60;;
3523;SDS011;1776;53.330;11.498;2024-03-23T11:03:32;9.60;;;3.70;;
3523;SDS011;1776;53.330;11.498;2024-03-23T11:06:01;7.50;;;2.50;;
3523;SDS011;1776;53.330;11.498;2024-03-23T11:08:37;14.07;;;2.43;;
3523;SDS011;1776;53.330;11.498;2024-03-23T11:11:13;8.80;;;2.77;;
3523;SDS011;1776;53.330;11.498;2024-03-23T11:13:39;11.60;;;2.77;;
3523;SDS011;1776;53.330;11.498;2024-03-23T11:16:21;12.43;;;3.50;;
3523;SDS011;1776;53.330;11.498;2024-03-23T11:18:52;11.93;;;3.67;;
3523;SDS011;1776;53.330;11.498;2024-03-23T11:24:20;11.33;;;3.00;;
3523;SDS011;1776;53.330;11.498;2024-03-23T11:26:47;16.50;;;4.60;;
3523;SDS011;1776;53.330;11.498;2024-03-23T11:29:13;12.53;;;4.50;;
3523;SDS011;1776;53.330;11.498;2024-03-23T11:32:13;6.73;;;2.90;;
3523;SDS011;1776;53.330;11.498;2024-03-23T11:34:34;11.60;;;2.93;;
3523;SDS011;1776;53.330;11.498;2024-03-23T11:37:04;6.40;;;2.33;;
3523;SDS011;1776;53.330;11.498;2024-03-23T11:39:31;10.07;;;2.10;;
3523;SDS011;1776;53.330;11.498;2024-03-23T11:41:56;8.50;;;2.23;;
3523;SDS011;1776;53.330;11.498;2024-03-23T11:44:23;11.10;;;2.10;;
3523;SDS011;1776;53.330;11.498;2024-03-23T11:46:50;6.90;;;2.40;;
3523;SDS011;1776;53.330;11.498;2024-03-23T11:51:53;6.87;;;2.33;;
3523;SDS011;1776;53.330;11.498;2024-03-23T11:54:20;10.20;;;2.73;;
3523;SDS011;1776;53.330;11.498;2024-03-23T11:56:56;7.83;;;2.60;;
3523;SDS011;1776;53.330;11.498;2024-03-23T11:59:35;4.33;;;1.67;;
3523;SDS011;1776;53.330;11.498;2024-03-23T12:02:08;9.90;;;2.10;;
3523;SDS011;1776;53.330;11.498;2024-03-23T12:04:37;7.87;;;1.93;;
3523;SDS011;1776;53.330;11.498;2024-03-23T12:07:12;8.70;;;2.50;;
3523;SDS011;1776;53.330;11.498;2024-03-23T12:09:39;22.43;;;3.43;;
3523;SDS011;1776;53.330;11.498;2024-03-23T12:12:09;10.03;;;2.23;;
3523;SDS011;1776;53.330;11.498;2024-03-23T12:15:01;16.30;;;3.97;;
3523;SDS011;1776;53.330;11.498;2024-03-23T12:17:28;7.20;;;2.67;;
3523;SDS011;1776;53.330;11.498;2024-03-23T12:19:53;6.60;;;2.30;;
3523;SDS011;1776;53.330;11.498;2024-03-23T12:22:22;5.03;;;1.80;;
3523;SDS011;1776;53.330;11.498;2024-03-23T12:24:48;7.80;;;2.00;;
3523;SDS011;1776;53.330;11.498;2024-03-23T12:27:13;2.90;;;1.50;;
3523;SDS011;1776;53.330;11.498;2024-03-23T12:29:39;10.40;;;3.70;;
3523;SDS011;1776;53.330;11.498;2024-03-23T12:32:06;4.77;;;1.40;;
3523;SDS011;1776;53.330;11.498;2024-03-23T12:34:32;4.40;;;1.70;;
3523;SDS011;1776;53.330;11.498;2024-03-23T12:36:57;12.53;;;1.77;;
3523;SDS011;1776;53.330;11.498;2024-03-23T12:39:22;7.43;;;2.10;;
3523;SDS011;1776;53.330;11.498;2024-03-23T12:41:48;6.33;;;1.87;;
3523;SDS011;1776;53.330;11.498;2024-03-23T12:44:13;4.57;;;2.10;;
3523;SDS011;1776;53.330;11.498;2024-03-23T12:46:40;3.93;;;1.93;;
3523;SDS011;1776;53.330;11.498;2024-03-23T12:49:08;11.70;;;2.27;;
3523;SDS011;1776;53.330;11.498;2024-03-23T12:51:33;9.30;;;2.10;;
3523;SDS011;1776;53.330;11.498;2024-03-23T12:53:59;7.93;;;1.97;;
3523;SDS011;1776;53.330;11.498;2024-03-23T12:56:25;5.20;;;1.87;;
3523;SDS011;1776;53.330;11.498;2024-03-23T12:58:50;7.50;;;2.77;;
3523;SDS011;1776;53.330;11.498;2024-03-23T13:01:20;4.30;;;1.70;;
3523;SDS011;1776;53.330;11.498;2024-03-23T13:03:48;6.20;;;2.03;;
3523;SDS011;1776;53.330;11.498;2024-03-23T13:06:14;6.53;;;1.77;;
3523;SDS011;1776;53.330;11.498;2024-03-23T13:08:40;6.90;;;1.87;;
3523;SDS011;1776;53.330;11.498;2024-03-23T13:11:06;8.57;;;2.30;;
3523;SDS011;1776;53.330;11.498;2024-03-23T13:13:38;4.43;;;2.00;;
3523;SDS011;1776;53.330;11.498;2024-03-23T13:16:03;9.43;;;2.60;;
3523;SDS011;1776;53.330;11.498;2024-03-23T13:18:30;5.80;;;2.97;;
3523;SDS011;1776;53.330;11.498;2024-03-23T13:20:56;3.23;;;1.90;;
3523;SDS011;1776;53.330;11.498;2024-03-23T13:23:21;6.97;;;2.17;;
3523;SDS011;1776;53.330;11.498;2024-03-23T13:25:52;5.97;;;1.80;;
3523;SDS011;1776;53.330;11.498;2024-03-23T13:28:22;4.53;;;1.43;;
3523;SDS011;1776;53.330;11.498;2024-03-23T13:30:54;6.10;;;1.77;;
3523;SDS011;1776;53.330;11.498;2024-03-23T13:33:20;3.23;;;1.60;;
3523;SDS011;1776;53.330;11.498;2024-03-23T13:35:49;4.93;;;1.83;;
3523;SDS011;1776;53.330;11.498;2024-03-23T13:38:18;4.67;;;2.10;;
3523;SDS011;1776;53.330;11.498;2024-03-23T13:40:53;3.80;;;1.37;;
3523;SDS011;1776;53.330;11.498;2024-03-23T13:43:22;1.90;;;1.43;;
3523;SDS011;1776;53.330;11.498;2024-03-23T13:45:49;3.67;;;1.60;;
3523;SDS011;1776;53.330;11.498;2024-03-23T13:48:17;3.97;;;1.30;;
3523;SDS011;1776;53.330;11.498;2024-03-23T13:50:44;2.97;;;1.90;;
3523;SDS011;1776;53.330;11.498;2024-03-23T13:53:12;2.40;;;1.53;;
3523;SDS011;1776;53.330;11.498;2024-03-23T13:55:37;2.17;;;1.87;;
3523;SDS011;1776;53.330;11.498;2024-03-23T13:58:03;1.60;;;1.50;;
3523;SDS011;1776;53.330;11.498;2024-03-23T14:00:29;10.77;;;6.70;;
3523;SDS011;1776;53.330;11.498;2024-03-23T14:02:54;9.10;;;2.67;;
3523;SDS011;1776;53.330;11.498;2024-03-23T14:05:19;4.00;;;2.20;;
3523;SDS011;1776;53.330;11.498;2024-03-23T14:07:44;3.30;;;2.07;;
3523;SDS011;1776;53.330;11.498;2024-03-23T14:10:10;4.07;;;1.70;;
3523;SDS011;1776;53.330;11.498;2024-03-23T14:12:38;7.67;;;2.10;;
3523;SDS011;1776;53.330;11.498;2024-03-23T14:15:06;3.90;;;1.97;;
3523;SDS011;1776;53.330;11.498;2024-03-23T14:17:32;8.47;;;2.63;;
3523;SDS011;1776;53.330;11.498;2024-03-23T14:19:57;6.53;;;2.20;;
3523;SDS011;1776;53.330;11.498;2024-03-23T14:22:26;7.10;;;3.57;;
3523;SDS011;1776;53.330;11.498;2024-03-23T14:24:51;5.60;;;1.83;;
3523;SDS011;1776;53.330;11.498;2024-03-23T14:27:17;6.30;;;2.40;;
3523;SDS011;1776;53.330;11.498;2024-03-23T14:29:45;3.97;;;1.97;;
3523;SDS011;1776;53.330;11.498;2024-03-23T14:32:11;7.07;;;1.97;;
3523;SDS011;1776;53.330;11.498;2024-03-23T14:34:36;9.53;;;2.93;;
3523;SDS011;1776;53.330;11.498;2024-03-23T14:37:01;5.13;;;2.10;;
3523;SDS011;1776;53.330;11.498;2024-03-23T14:39:27;6.50;;;2.10;;
3523;SDS011;1776;53.330;11.498;2024-03-23T14:41:52;8.90;;;2.53;;
3523;SDS011;1776;53.330;11.498;2024-03-23T14:44:17;10.60;;;2.50;;
3523;SDS011;1776;53.330;11.498;2024-03-23T14:46:43;7.47;;;2.97;;
3523;SDS011;1776;53.330;11.498;2024-03-23T14:49:08;11.50;;;3.20;;
3523;SDS011;1776;53.330;11.498;2024-03-23T14:51:33;6.87;;;2.90;;
3523;SDS011;1776;53.330;11.498;2024-03-23T14:53:59;3.30;;;2.00;;
3523;SDS011;1776;53.330;11.498;2024-03-23T14:56:24;6.00;;;2.50;;
3523;SDS011;1776;53.330;11.498;2024-03-23T14:58:52;4.83;;;2.40;;
3523;SDS011;1776;53.330;11.498;2024-03-23T15:01:18;7.13;;;2.87;;
3523;SDS011;1776;53.330;11.498;2024-03-23T15:03:43;5.73;;;2.13;;
3523;SDS011;1776;53.330;11.498;2024-03-23T15:06:09;2.43;;;1.67;;
3523;SDS011;1776;53.330;11.498;2024-03-23T15:08:35;4.90;;;2.23;;
3523;SDS011;1776;53.330;11.498;2024-03-23T15:11:02;4.80;;;1.50;;
3523;SDS011;1776;53.330;11.498;2024-03-23T15:13:33;7.10;;;2.33;;
3523;SDS011;1776;53.330;11.498;2024-03-23T15:15:59;8.97;;;2.97;;
3523;SDS011;1776;53.330;11.498;2024-03-23T15:18:24;4.80;;;2.73;;
3523;SDS011;1776;53.330;11.498;2024-03-23T15:20:59;4.93;;;2.50;;
3523;SDS011;1776;53.330;11.498;2024-03-23T15:23:32;6.70;;;2.03;;
3523;SDS011;1776;53.330;11.498;2024-03-23T15:25:58;4.50;;;2.60;;
3523;SDS011;1776;53.330;11.498;2024-03-23T15:28:28;5.77;;;1.67;;
3523;SDS011;1776;53.330;11.498;2024-03-23T15:31:19;5.63;;;2.73;;
3523;SDS011;1776;53.330;11.498;2024-03-23T15:33:44;4.27;;;2.33;;
3523;SDS011;1776;53.330;11.498;2024-03-23T15:36:10;4.17;;;3.77;;
3523;SDS011;1776;53.330;11.498;2024-03-23T15:38:35;3.90;;;3.33;;
3523;SDS011;1776;53.330;11.498;2024-03-23T15:41:00;5.70;;;1.70;;
3523;SDS011;1776;53.330;11.498;2024-03-23T15:43:26;1.97;;;1.80;;
3523;SDS011;1776;53.330;11.498;2024-03-23T15:45:58;4.40;;;1.87;;